Hunt Wheels “The Chase is On” LVRC Round 9
19 May 2019

     

Page 1 of 1 (37 items)
PosRace NoNameGun TimeCategoryCat PosGenderGen PosClubAverage Speed
13Steve Calland01:28:46.13B1Male1Southdowns Bikes / Casco Pet 24.6 m/hr
227Arjan Planting01:28:51.09A1Male2Dulwich Paragon 24.6 m/hr
321Simon MCNAMARA01:28:56.93A2Male3Southdowns Bikes / Casco Pet 24.6 m/hr
44Richard Cartland01:31:43.18A3Male4Southdowns Bikes / Casco Pet 23.8 m/hr
5192Mark Gower01:31:45.79A4Male5 23.8 m/hr
626Darrell PEMBROKE01:31:52.51A5Male6GS Vecchi 23.8 m/hr
76Dean CORNEY01:31:54.36A6Male7MEUDON SOVEREIGN PEDAL HEAVEN RT 23.8 m/hr
818Adam LEECH01:32:11.55A7Male8Cranleigh 23.7 m/hr
934David TATE01:34:38.59B2Male9IN GEAR 23.1 m/hr
1012Grzegorz GACEK01:34:38.91A8Male10NKK CC 23.1 m/hr
1125Sean O'REGAN01:34:39.06B3Male11Private 23.1 m/hr
1215Rowan HORNER01:34:39.77B4Male12VC St Raphael 23.1 m/hr
1333Dan STREET01:34:40.14B5Male13Lewes Wanderers 23.1 m/hr
145Marco COPPOLA01:34:41.82B6Male14WyndyMilla 23.1 m/hr
1538Simon BELL01:34:42.89No Scoring1Male154T+ Cyclopark 23.1 m/hr
162David BRODERICK01:34:42.96B7Male16Dulwich Paragon 23.1 m/hr
1716Brad LAMB01:34:44.20B8Male17Victoria Cycling Club 23.1 m/hr
1832Paul SPICELEY01:34:46.22B9Male18Glendene CC 23.0 m/hr
1930Marek SIWICKI01:34:50.16B10Male19Addiscombe CC 23.0 m/hr
2011Sean FURLEY01:34:52.16A9Male20Oxted cc 23.0 m/hr
218Mark Daly01:34:52.18B11Male21Colour-Tech RT 23.0 m/hr
2219Andrew MARTIN01:34:52.69B12Male22LBRCC 23.0 m/hr
23193Martin Headon01:34:53.33A10Male23 23.0 m/hr
2423Stu NISBETT01:34:58.39B13Male24Crawley Wheelers 23.0 m/hr
2529Duncan RIMMER01:35:00.44A11Male25Morden CRC 23.0 m/hr
2610Steve DRING01:35:10.13B14Male26Echelon RT 22.9 m/hr
2720Dominic MAXWELL01:37:24.00B15Male27Worthing Excelsior 22.4 m/hr
2814Jerzy HORCZYK01:37:42.88A12Male28Onyx 22.4 m/hr
1Alex BEYFUSDNFBMaleSussex Nomads
7Andy CRITCHLOWNot startedBMaleNorwood Paragon
9Vince DIVINENot startedBMaleFinchley RT
13Phil HERSEYNot startedBMaleEagle RC
17Simon LAWSNot startedAMaleGS Vecchi
22Jared MillarNot startedBMaleVerulam Really Moving CC
24Mark OldfieldNot startedBMale4T+ Cyclopark
28Matt PUMONot startedBMaleVerulam Really Moving CC
31Chris SMITHNot startedBMalePython RT
Page 1 of 1 (37 items)
   

fb